sensor_id;sensor_type;location;lat;lon;timestamp;P1;durP1;ratioP1;P2;durP2;ratioP2
60873;SDS011;46715;40.642;-7.920;2023-05-07T00:00:04;18.60;;;5.30;;
60873;SDS011;46715;40.642;-7.920;2023-05-07T00:02:09;20.45;;;5.60;;
60873;SDS011;46715;40.642;-7.920;2023-05-07T00:04:10;19.90;;;5.50;;
60873;SDS011;46715;40.642;-7.920;2023-05-07T00:06:11;22.13;;;5.93;;
60873;SDS011;46715;40.642;-7.920;2023-05-07T00:08:12;18.33;;;5.80;;
60873;SDS011;46715;40.642;-7.920;2023-05-07T00:10:13;23.87;;;5.80;;
60873;SDS011;46715;40.642;-7.920;2023-05-07T00:12:14;15.67;;;5.30;;
60873;SDS011;46715;40.642;-7.920;2023-05-07T00:14:14;14.77;;;5.10;;
60873;SDS011;46715;40.642;-7.920;2023-05-07T00:16:15;19.67;;;5.53;;
60873;SDS011;46715;40.642;-7.920;2023-05-07T00:18:16;27.17;;;5.73;;
60873;SDS011;46715;40.642;-7.920;2023-05-07T00:20:16;19.43;;;6.33;;
60873;SDS011;46715;40.642;-7.920;2023-05-07T00:22:18;20.33;;;5.70;;
60873;SDS011;46715;40.642;-7.920;2023-05-07T00:24:19;15.50;;;5.87;;
60873;SDS011;46715;40.642;-7.920;2023-05-07T00:26:20;18.67;;;5.78;;
60873;SDS011;46715;40.642;-7.920;2023-05-07T00:28:23;19.30;;;5.85;;
60873;SDS011;46715;40.642;-7.920;2023-05-07T00:30:24;20.17;;;5.60;;
60873;SDS011;46715;40.642;-7.920;2023-05-07T00:32:25;26.07;;;6.27;;
60873;SDS011;46715;40.642;-7.920;2023-05-07T00:34:27;24.20;;;6.15;;
60873;SDS011;46715;40.642;-7.920;2023-05-07T00:36:28;17.90;;;5.22;;
60873;SDS011;46715;40.642;-7.920;2023-05-07T00:38:29;24.55;;;6.75;;
60873;SDS011;46715;40.642;-7.920;2023-05-07T00:40:30;18.60;;;6.13;;
60873;SDS011;46715;40.642;-7.920;2023-05-07T00:42:31;16.02;;;6.05;;
60873;SDS011;46715;40.642;-7.920;2023-05-07T00:46:34;19.58;;;6.20;;
60873;SDS011;46715;40.642;-7.920;2023-05-07T00:48:35;22.07;;;6.10;;
60873;SDS011;46715;40.642;-7.920;2023-05-07T00:50:36;20.63;;;6.40;;
60873;SDS011;46715;40.642;-7.920;2023-05-07T00:52:38;25.77;;;7.28;;
60873;SDS011;46715;40.642;-7.920;2023-05-07T00:54:39;18.03;;;6.30;;
60873;SDS011;46715;40.642;-7.920;2023-05-07T00:56:41;19.92;;;6.53;;
60873;SDS011;46715;40.642;-7.920;2023-05-07T00:58:41;28.33;;;6.60;;
60873;SDS011;46715;40.642;-7.920;2023-05-07T01:00:43;25.30;;;7.22;;
60873;SDS011;46715;40.642;-7.920;2023-05-07T01:02:44;21.03;;;7.60;;
60873;SDS011;46715;40.642;-7.920;2023-05-07T01:04:45;27.70;;;6.83;;
60873;SDS011;46715;40.642;-7.920;2023-05-07T01:06:46;19.37;;;7.07;;
60873;SDS011;46715;40.642;-7.920;2023-05-07T01:08:47;18.65;;;6.45;;
60873;SDS011;46715;40.642;-7.920;2023-05-07T01:10:51;17.70;;;6.38;;
60873;SDS011;46715;40.642;-7.920;2023-05-07T01:12:53;26.85;;;6.63;;
60873;SDS011;46715;40.642;-7.920;2023-05-07T01:14:56;18.38;;;6.53;;
60873;SDS011;46715;40.642;-7.920;2023-05-07T01:16:58;25.13;;;6.82;;
60873;SDS011;46715;40.642;-7.920;2023-05-07T01:19:00;22.65;;;6.65;;
60873;SDS011;46715;40.642;-7.920;2023-05-07T01:21:04;20.20;;;6.53;;
60873;SDS011;46715;40.642;-7.920;2023-05-07T01:23:05;25.90;;;7.13;;
60873;SDS011;46715;40.642;-7.920;2023-05-07T01:25:08;18.98;;;6.03;;
60873;SDS011;46715;40.642;-7.920;2023-05-07T01:27:12;18.55;;;6.85;;
60873;SDS011;46715;40.642;-7.920;2023-05-07T01:29:13;19.48;;;7.20;;
60873;SDS011;46715;40.642;-7.920;2023-05-07T01:31:14;23.43;;;7.30;;
60873;SDS011;46715;40.642;-7.920;2023-05-07T01:33:25;20.85;;;6.40;;
60873;SDS011;46715;40.642;-7.920;2023-05-07T01:35:30;19.88;;;6.38;;
60873;SDS011;46715;40.642;-7.920;2023-05-07T01:37:34;21.85;;;6.93;;
60873;SDS011;46715;40.642;-7.920;2023-05-07T01:39:35;18.85;;;6.55;;
60873;SDS011;46715;40.642;-7.920;2023-05-07T01:41:39;22.30;;;6.20;;
60873;SDS011;46715;40.642;-7.920;2023-05-07T01:43:41;19.88;;;6.50;;
60873;SDS011;46715;40.642;-7.920;2023-05-07T01:45:43;17.52;;;6.10;;
60873;SDS011;46715;40.642;-7.920;2023-05-07T01:47:45;17.50;;;6.18;;
60873;SDS011;46715;40.642;-7.920;2023-05-07T01:49:47;20.58;;;6.35;;
60873;SDS011;46715;40.642;-7.920;2023-05-07T01:51:48;26.30;;;6.27;;
60873;SDS011;46715;40.642;-7.920;2023-05-07T01:53:50;23.67;;;6.13;;
60873;SDS011;46715;40.642;-7.920;2023-05-07T01:55:54;22.85;;;6.40;;
60873;SDS011;46715;40.642;-7.920;2023-05-07T01:57:56;18.00;;;6.13;;
60873;SDS011;46715;40.642;-7.920;2023-05-07T01:59:58;24.92;;;6.35;;
60873;SDS011;46715;40.642;-7.920;2023-05-07T02:01:58;17.03;;;6.30;;
60873;SDS011;46715;40.642;-7.920;2023-05-07T02:04:02;15.57;;;6.95;;
60873;SDS011;46715;40.642;-7.920;2023-05-07T02:06:04;19.10;;;6.25;;
60873;SDS011;46715;40.642;-7.920;2023-05-07T02:08:11;21.80;;;6.65;;
60873;SDS011;46715;40.642;-7.920;2023-05-07T02:10:12;21.60;;;7.40;;
60873;SDS011;46715;40.642;-7.920;2023-05-07T02:12:13;20.75;;;7.13;;
60873;SDS011;46715;40.642;-7.920;2023-05-07T02:14:15;21.15;;;7.25;;
60873;SDS011;46715;40.642;-7.920;2023-05-07T02:16:16;30.67;;;7.80;;
60873;SDS011;46715;40.642;-7.920;2023-05-07T02:18:17;24.48;;;7.03;;
60873;SDS011;46715;40.642;-7.920;2023-05-07T02:20:18;21.23;;;7.90;;
60873;SDS011;46715;40.642;-7.920;2023-05-07T02:22:19;25.93;;;7.17;;
60873;SDS011;46715;40.642;-7.920;2023-05-07T02:24:19;22.97;;;6.50;;
60873;SDS011;46715;40.642;-7.920;2023-05-07T02:26:21;24.23;;;6.73;;
60873;SDS011;46715;40.642;-7.920;2023-05-07T02:28:23;25.75;;;6.82;;
60873;SDS011;46715;40.642;-7.920;2023-05-07T02:30:34;19.60;;;6.67;;
60873;SDS011;46715;40.642;-7.920;2023-05-07T02:32:36;23.45;;;7.22;;
60873;SDS011;46715;40.642;-7.920;2023-05-07T02:34:37;22.58;;;6.75;;
60873;SDS011;46715;40.642;-7.920;2023-05-07T02:36:38;16.58;;;6.20;;
60873;SDS011;46715;40.642;-7.920;2023-05-07T02:38:45;23.05;;;6.50;;
60873;SDS011;46715;40.642;-7.920;2023-05-07T02:40:45;20.30;;;6.30;;
60873;SDS011;46715;40.642;-7.920;2023-05-07T02:42:47;24.42;;;7.30;;
60873;SDS011;46715;40.642;-7.920;2023-05-07T02:44:49;25.80;;;6.63;;
60873;SDS011;46715;40.642;-7.920;2023-05-07T02:46:50;23.07;;;6.20;;
60873;SDS011;46715;40.642;-7.920;2023-05-07T02:48:51;23.10;;;7.33;;
60873;SDS011;46715;40.642;-7.920;2023-05-07T02:50:52;23.90;;;6.50;;
60873;SDS011;46715;40.642;-7.920;2023-05-07T02:52:53;17.37;;;6.47;;
60873;SDS011;46715;40.642;-7.920;2023-05-07T02:54:54;22.90;;;7.38;;
60873;SDS011;46715;40.642;-7.920;2023-05-07T02:56:55;25.17;;;7.18;;
60873;SDS011;46715;40.642;-7.920;2023-05-07T02:58:56;21.63;;;6.70;;
60873;SDS011;46715;40.642;-7.920;2023-05-07T03:01:00;16.33;;;5.90;;
60873;SDS011;46715;40.642;-7.920;2023-05-07T03:03:10;18.08;;;6.40;;
60873;SDS011;46715;40.642;-7.920;2023-05-07T03:05:11;23.98;;;6.80;;
60873;SDS011;46715;40.642;-7.920;2023-05-07T03:07:12;19.77;;;6.30;;
60873;SDS011;46715;40.642;-7.920;2023-05-07T03:09:13;22.23;;;6.50;;
60873;SDS011;46715;40.642;-7.920;2023-05-07T03:11:14;23.27;;;6.20;;
60873;SDS011;46715;40.642;-7.920;2023-05-07T03:13:15;27.25;;;7.00;;
60873;SDS011;46715;40.642;-7.920;2023-05-07T03:15:16;25.40;;;7.05;;
60873;SDS011;46715;40.642;-7.920;2023-05-07T03:17:17;24.53;;;7.80;;
60873;SDS011;46715;40.642;-7.920;2023-05-07T03:19:18;20.20;;;6.25;;
60873;SDS011;46715;40.642;-7.920;2023-05-07T03:21:19;21.30;;;6.40;;
60873;SDS011;46715;40.642;-7.920;2023-05-07T03:23:20;16.03;;;5.23;;
60873;SDS011;46715;40.642;-7.920;2023-05-07T03:25:23;22.03;;;6.00;;
60873;SDS011;46715;40.642;-7.920;2023-05-07T03:27:25;22.33;;;7.40;;
60873;SDS011;46715;40.642;-7.920;2023-05-07T03:29:27;22.17;;;7.13;;
60873;SDS011;46715;40.642;-7.920;2023-05-07T03:31:29;18.08;;;6.30;;
60873;SDS011;46715;40.642;-7.920;2023-05-07T03:33:32;21.93;;;5.80;;
60873;SDS011;46715;40.642;-7.920;2023-05-07T03:35:34;22.77;;;7.25;;
60873;SDS011;46715;40.642;-7.920;2023-05-07T03:37:34;19.30;;;5.90;;
60873;SDS011;46715;40.642;-7.920;2023-05-07T03:39:36;18.38;;;5.45;;
60873;SDS011;46715;40.642;-7.920;2023-05-07T03:43:39;25.00;;;6.43;;
60873;SDS011;46715;40.642;-7.920;2023-05-07T03:45:44;21.50;;;6.82;;
60873;SDS011;46715;40.642;-7.920;2023-05-07T03:47:50;21.98;;;6.10;;
60873;SDS011;46715;40.642;-7.920;2023-05-07T03:49:53;17.08;;;5.82;;
60873;SDS011;46715;40.642;-7.920;2023-05-07T03:51:57;18.45;;;6.20;;
60873;SDS011;46715;40.642;-7.920;2023-05-07T03:53:58;21.67;;;6.40;;
60873;SDS011;46715;40.642;-7.920;2023-05-07T03:56:01;23.30;;;6.88;;
60873;SDS011;46715;40.642;-7.920;2023-05-07T03:58:06;21.70;;;6.22;;
60873;SDS011;46715;40.642;-7.920;2023-05-07T04:00:07;24.60;;;6.33;;
60873;SDS011;46715;40.642;-7.920;2023-05-07T04:02:20;22.45;;;6.53;;
60873;SDS011;46715;40.642;-7.920;2023-05-07T04:06:24;18.55;;;6.35;;
60873;SDS011;46715;40.642;-7.920;2023-05-07T04:08:26;25.52;;;5.85;;
60873;SDS011;46715;40.642;-7.920;2023-05-07T04:10:29;26.45;;;6.72;;
60873;SDS011;46715;40.642;-7.920;2023-05-07T04:12:31;20.15;;;6.28;;
60873;SDS011;46715;40.642;-7.920;2023-05-07T04:14:33;18.33;;;6.13;;
60873;SDS011;46715;40.642;-7.920;2023-05-07T04:16:36;22.63;;;6.47;;
60873;SDS011;46715;40.642;-7.920;2023-05-07T04:18:37;21.83;;;6.25;;
60873;SDS011;46715;40.642;-7.920;2023-05-07T04:22:44;17.42;;;5.10;;
60873;SDS011;46715;40.642;-7.920;2023-05-07T04:24:45;18.93;;;5.70;;
60873;SDS011;46715;40.642;-7.920;2023-05-07T04:26:47;27.95;;;6.45;;
60873;SDS011;46715;40.642;-7.920;2023-05-07T04:28:50;21.38;;;6.55;;
60873;SDS011;46715;40.642;-7.920;2023-05-07T04:30:51;22.20;;;5.93;;
60873;SDS011;46715;40.642;-7.920;2023-05-07T04:34:55;17.40;;;6.07;;
60873;SDS011;46715;40.642;-7.920;2023-05-07T04:38:59;20.75;;;5.57;;
60873;SDS011;46715;40.642;-7.920;2023-05-07T04:41:04;17.10;;;5.68;;
60873;SDS011;46715;40.642;-7.920;2023-05-07T04:43:11;19.98;;;5.47;;
60873;SDS011;46715;40.642;-7.920;2023-05-07T04:45:18;17.70;;;5.82;;
60873;SDS011;46715;40.642;-7.920;2023-05-07T04:47:21;18.90;;;5.82;;
60873;SDS011;46715;40.642;-7.920;2023-05-07T04:49:22;21.08;;;6.07;;
60873;SDS011;46715;40.642;-7.920;2023-05-07T04:51:26;23.02;;;7.38;;
60873;SDS011;46715;40.642;-7.920;2023-05-07T04:53:28;19.00;;;6.22;;
60873;SDS011;46715;40.642;-7.920;2023-05-07T04:55:31;19.45;;;6.68;;
60873;SDS011;46715;40.642;-7.920;2023-05-07T04:57:32;15.82;;;6.43;;
60873;SDS011;46715;40.642;-7.920;2023-05-07T04:59:33;18.77;;;5.72;;
60873;SDS011;46715;40.642;-7.920;2023-05-07T05:01:34;19.83;;;6.27;;
60873;SDS011;46715;40.642;-7.920;2023-05-07T05:03:35;17.73;;;5.97;;
60873;SDS011;46715;40.642;-7.920;2023-05-07T05:05:36;27.73;;;7.20;;
60873;SDS011;46715;40.642;-7.920;2023-05-07T05:07:37;20.58;;;6.07;;
60873;SDS011;46715;40.642;-7.920;2023-05-07T05:09:38;18.43;;;6.60;;
60873;SDS011;46715;40.642;-7.920;2023-05-07T05:11:40;17.50;;;6.97;;
60873;SDS011;46715;40.642;-7.920;2023-05-07T05:13:40;18.80;;;7.17;;
60873;SDS011;46715;40.642;-7.920;2023-05-07T05:15:50;17.17;;;6.00;;
60873;SDS011;46715;40.642;-7.920;2023-05-07T05:17:51;18.33;;;6.30;;
60873;SDS011;46715;40.642;-7.920;2023-05-07T05:19:52;14.13;;;5.88;;
60873;SDS011;46715;40.642;-7.920;2023-05-07T05:21:58;17.83;;;6.50;;
60873;SDS011;46715;40.642;-7.920;2023-05-07T05:24:02;23.75;;;6.53;;
60873;SDS011;46715;40.642;-7.920;2023-05-07T05:26:03;19.58;;;6.97;;
60873;SDS011;46715;40.642;-7.920;2023-05-07T05:28:06;19.77;;;6.68;;
60873;SDS011;46715;40.642;-7.920;2023-05-07T05:30:08;13.63;;;5.82;;
60873;SDS011;46715;40.642;-7.920;2023-05-07T05:32:10;15.70;;;5.75;;
60873;SDS011;46715;40.642;-7.920;2023-05-07T05:34:11;18.73;;;6.10;;
60873;SDS011;46715;40.642;-7.920;2023-05-07T05:36:12;17.55;;;5.82;;
60873;SDS011;46715;40.642;-7.920;2023-05-07T05:38:14;16.85;;;6.00;;
60873;SDS011;46715;40.642;-7.920;2023-05-07T05:40:15;17.23;;;5.95;;
60873;SDS011;46715;40.642;-7.920;2023-05-07T05:42:16;16.70;;;6.77;;
60873;SDS011;46715;40.642;-7.920;2023-05-07T05:44:17;14.40;;;6.23;;
60873;SDS011;46715;40.642;-7.920;2023-05-07T05:46:18;12.40;;;5.37;;
60873;SDS011;46715;40.642;-7.920;2023-05-07T05:48:18;22.80;;;6.77;;
60873;SDS011;46715;40.642;-7.920;2023-05-07T05:50:20;20.67;;;7.70;;
60873;SDS011;46715;40.642;-7.920;2023-05-07T05:52:22;20.02;;;6.68;;
60873;SDS011;46715;40.642;-7.920;2023-05-07T05:54:24;20.23;;;6.32;;
60873;SDS011;46715;40.642;-7.920;2023-05-07T05:56:28;18.35;;;6.22;;
60873;SDS011;46715;40.642;-7.920;2023-05-07T05:58:28;14.18;;;6.25;;
60873;SDS011;46715;40.642;-7.920;2023-05-07T06:00:34;19.20;;;6.32;;
60873;SDS011;46715;40.642;-7.920;2023-05-07T06:02:38;17.38;;;5.95;;
60873;SDS011;46715;40.642;-7.920;2023-05-07T06:04:40;16.42;;;5.20;;
60873;SDS011;46715;40.642;-7.920;2023-05-07T06:06:44;17.20;;;4.70;;
60873;SDS011;46715;40.642;-7.920;2023-05-07T06:08:45;12.05;;;4.90;;
60873;SDS011;46715;40.642;-7.920;2023-05-07T06:10:50;16.38;;;4.55;;
60873;SDS011;46715;40.642;-7.920;2023-05-07T06:12:52;16.55;;;5.03;;
60873;SDS011;46715;40.642;-7.920;2023-05-07T06:14:54;14.70;;;4.93;;
60873;SDS011;46715;40.642;-7.920;2023-05-07T06:16:56;15.70;;;5.30;;
60873;SDS011;46715;40.642;-7.920;2023-05-07T06:18:57;17.48;;;5.22;;
60873;SDS011;46715;40.642;-7.920;2023-05-07T06:20:58;22.00;;;5.70;;
60873;SDS011;46715;40.642;-7.920;2023-05-07T06:23:06;17.65;;;5.82;;
60873;SDS011;46715;40.642;-7.920;2023-05-07T06:27:10;20.50;;;5.75;;
60873;SDS011;46715;40.642;-7.920;2023-05-07T06:29:12;17.33;;;5.88;;
60873;SDS011;46715;40.642;-7.920;2023-05-07T06:31:16;21.58;;;5.57;;
60873;SDS011;46715;40.642;-7.920;2023-05-07T06:33:28;21.20;;;5.30;;
60873;SDS011;46715;40.642;-7.920;2023-05-07T06:35:29;21.53;;;4.87;;
60873;SDS011;46715;40.642;-7.920;2023-05-07T06:37:30;15.77;;;5.60;;
60873;SDS011;46715;40.642;-7.920;2023-05-07T06:39:37;18.33;;;5.47;;
60873;SDS011;46715;40.642;-7.920;2023-05-07T06:43:52;11.40;;;4.50;;
60873;SDS011;46715;40.642;-7.920;2023-05-07T06:46:07;15.18;;;4.50;;
60873;SDS011;46715;40.642;-7.920;2023-05-07T06:48:08;17.27;;;3.83;;
60873;SDS011;46715;40.642;-7.920;2023-05-07T06:50:19;23.75;;;5.53;;
60873;SDS011;46715;40.642;-7.920;2023-05-07T06:52:21;12.52;;;5.28;;
60873;SDS011;46715;40.642;-7.920;2023-05-07T06:54:24;18.25;;;4.45;;
60873;SDS011;46715;40.642;-7.920;2023-05-07T06:56:25;16.20;;;4.60;;
60873;SDS011;46715;40.642;-7.920;2023-05-07T06:58:26;13.70;;;4.53;;
60873;SDS011;46715;40.642;-7.920;2023-05-07T07:00:27;16.00;;;4.85;;
60873;SDS011;46715;40.642;-7.920;2023-05-07T07:02:29;16.20;;;6.55;;
60873;SDS011;46715;40.642;-7.920;2023-05-07T07:04:30;17.80;;;6.57;;
60873;SDS011;46715;40.642;-7.920;2023-05-07T07:06:38;13.88;;;6.15;;
60873;SDS011;46715;40.642;-7.920;2023-05-07T07:08:46;14.93;;;5.30;;
60873;SDS011;46715;40.642;-7.920;2023-05-07T07:10:49;14.18;;;4.45;;
60873;SDS011;46715;40.642;-7.920;2023-05-07T07:12:50;16.37;;;5.00;;
60873;SDS011;46715;40.642;-7.920;2023-05-07T07:14:54;13.38;;;4.95;;
60873;SDS011;46715;40.642;-7.920;2023-05-07T07:16:55;14.23;;;3.60;;
60873;SDS011;46715;40.642;-7.920;2023-05-07T07:18:57;10.98;;;3.20;;
60873;SDS011;46715;40.642;-7.920;2023-05-07T07:20:58;13.50;;;3.10;;
60873;SDS011;46715;40.642;-7.920;2023-05-07T07:23:01;9.82;;;2.90;;
60873;SDS011;46715;40.642;-7.920;2023-05-07T07:25:02;11.65;;;2.63;;
60873;SDS011;46715;40.642;-7.920;2023-05-07T07:29:06;8.35;;;2.70;;
60873;SDS011;46715;40.642;-7.920;2023-05-07T07:31:08;7.18;;;2.47;;
60873;SDS011;46715;40.642;-7.920;2023-05-07T07:33:09;10.50;;;2.55;;
60873;SDS011;46715;40.642;-7.920;2023-05-07T07:35:12;9.23;;;2.30;;
60873;SDS011;46715;40.642;-7.920;2023-05-07T07:37:14;9.65;;;2.80;;
60873;SDS011;46715;40.642;-7.920;2023-05-07T07:39:15;7.97;;;2.65;;
60873;SDS011;46715;40.642;-7.920;2023-05-07T07:41:17;8.30;;;2.47;;
60873;SDS011;46715;40.642;-7.920;2023-05-07T07:43:19;5.40;;;2.40;;
60873;SDS011;46715;40.642;-7.920;2023-05-07T07:45:21;7.78;;;1.90;;
60873;SDS011;46715;40.642;-7.920;2023-05-07T07:47:24;9.25;;;2.10;;
60873;SDS011;46715;40.642;-7.920;2023-05-07T07:49:27;9.63;;;2.42;;
60873;SDS011;46715;40.642;-7.920;2023-05-07T07:51:30;8.18;;;2.55;;
60873;SDS011;46715;40.642;-7.920;2023-05-07T07:53:33;8.20;;;2.75;;
60873;SDS011;46715;40.642;-7.920;2023-05-07T07:55:37;9.98;;;2.75;;
60873;SDS011;46715;40.642;-7.920;2023-05-07T07:57:40;7.50;;;2.63;;
60873;SDS011;46715;40.642;-7.920;2023-05-07T07:59:42;8.98;;;2.70;;
60873;SDS011;46715;40.642;-7.920;2023-05-07T08:01:45;9.32;;;3.13;;
60873;SDS011;46715;40.642;-7.920;2023-05-07T08:03:46;7.40;;;2.63;;
60873;SDS011;46715;40.642;-7.920;2023-05-07T08:05:48;6.72;;;2.42;;
60873;SDS011;46715;40.642;-7.920;2023-05-07T08:07:51;8.45;;;2.58;;
60873;SDS011;46715;40.642;-7.920;2023-05-07T08:09:58;6.95;;;2.55;;
60873;SDS011;46715;40.642;-7.920;2023-05-07T08:12:00;6.03;;;2.17;;
60873;SDS011;46715;40.642;-7.920;2023-05-07T08:14:03;8.18;;;2.20;;
60873;SDS011;46715;40.642;-7.920;2023-05-07T08:16:04;7.22;;;2.58;;
60873;SDS011;46715;40.642;-7.920;2023-05-07T08:18:07;11.38;;;2.85;;
60873;SDS011;46715;40.642;-7.920;2023-05-07T08:20:08;11.60;;;3.10;;
60873;SDS011;46715;40.642;-7.920;2023-05-07T08:22:10;8.02;;;2.50;;
60873;SDS011;46715;40.642;-7.920;2023-05-07T08:26:14;8.52;;;3.10;;
60873;SDS011;46715;40.642;-7.920;2023-05-07T08:28:17;5.60;;;2.28;;
60873;SDS011;46715;40.642;-7.920;2023-05-07T08:30:21;7.43;;;2.70;;
60873;SDS011;46715;40.642;-7.920;2023-05-07T08:34:23;10.80;;;2.50;;
60873;SDS011;46715;40.642;-7.920;2023-05-07T08:36:26;7.13;;;2.28;;
60873;SDS011;46715;40.642;-7.920;2023-05-07T08:38:29;8.15;;;2.60;;
60873;SDS011;46715;40.642;-7.920;2023-05-07T08:42:36;7.05;;;2.28;;
60873;SDS011;46715;40.642;-7.920;2023-05-07T08:44:40;9.40;;;3.00;;
60873;SDS011;46715;40.642;-7.920;2023-05-07T08:46:45;7.75;;;2.95;;
60873;SDS011;46715;40.642;-7.920;2023-05-07T08:48:50;8.38;;;2.63;;
60873;SDS011;46715;40.642;-7.920;2023-05-07T08:50:53;5.95;;;2.25;;
60873;SDS011;46715;40.642;-7.920;2023-05-07T08:52:55;10.23;;;3.00;;
60873;SDS011;46715;40.642;-7.920;2023-05-07T08:54:57;5.30;;;1.75;;
60873;SDS011;46715;40.642;-7.920;2023-05-07T08:56:59;6.22;;;2.47;;
60873;SDS011;46715;40.642;-7.920;2023-05-07T08:59:02;10.82;;;2.40;;
60873;SDS011;46715;40.642;-7.920;2023-05-07T09:01:08;7.85;;;2.10;;
60873;SDS011;46715;40.642;-7.920;2023-05-07T09:03:13;5.90;;;2.08;;
60873;SDS011;46715;40.642;-7.920;2023-05-07T09:05:19;5.68;;;2.22;;
60873;SDS011;46715;40.642;-7.920;2023-05-07T09:07:21;8.73;;;2.05;;
60873;SDS011;46715;40.642;-7.920;2023-05-07T09:09:23;8.70;;;2.30;;
60873;SDS011;46715;40.642;-7.920;2023-05-07T09:11:27;7.90;;;2.65;;
60873;SDS011;46715;40.642;-7.920;2023-05-07T09:13:30;7.88;;;2.20;;
60873;SDS011;46715;40.642;-7.920;2023-05-07T09:15:33;6.70;;;2.60;;
60873;SDS011;46715;40.642;-7.920;2023-05-07T09:17:35;8.55;;;2.53;;
60873;SDS011;46715;40.642;-7.920;2023-05-07T09:19:36;7.35;;;2.42;;
60873;SDS011;46715;40.642;-7.920;2023-05-07T09:21:40;5.25;;;2.08;;
60873;SDS011;46715;40.642;-7.920;2023-05-07T09:23:43;7.47;;;2.35;;
60873;SDS011;46715;40.642;-7.920;2023-05-07T09:25:44;5.43;;;2.03;;
60873;SDS011;46715;40.642;-7.920;2023-05-07T09:27:53;5.97;;;2.25;;
60873;SDS011;46715;40.642;-7.920;2023-05-07T09:29:54;7.35;;;2.40;;
60873;SDS011;46715;40.642;-7.920;2023-05-07T09:31:55;8.55;;;2.35;;
60873;SDS011;46715;40.642;-7.920;2023-05-07T09:33:57;8.40;;;2.40;;
60873;SDS011;46715;40.642;-7.920;2023-05-07T09:36:03;6.47;;;2.20;;
60873;SDS011;46715;40.642;-7.920;2023-05-07T09:38:06;6.53;;;2.20;;
60873;SDS011;46715;40.642;-7.920;2023-05-07T09:40:20;6.50;;;2.15;;
60873;SDS011;46715;40.642;-7.920;2023-05-07T09:42:26;6.78;;;2.03;;
60873;SDS011;46715;40.642;-7.920;2023-05-07T09:44:31;11.07;;;2.47;;
60873;SDS011;46715;40.642;-7.920;2023-05-07T09:46:32;5.60;;;2.03;;
60873;SDS011;46715;40.642;-7.920;2023-05-07T09:48:41;6.45;;;2.08;;
60873;SDS011;46715;40.642;-7.920;2023-05-07T09:50:47;4.80;;;1.90;;
60873;SDS011;46715;40.642;-7.920;2023-05-07T09:52:52;7.72;;;2.03;;
60873;SDS011;46715;40.642;-7.920;2023-05-07T09:54:57;6.47;;;1.80;;
60873;SDS011;46715;40.642;-7.920;2023-05-07T09:57:04;7.03;;;2.22;;
60873;SDS011;46715;40.642;-7.920;2023-05-07T09:59:06;7.18;;;1.55;;
60873;SDS011;46715;40.642;-7.920;2023-05-07T10:01:10;6.63;;;1.85;;
60873;SDS011;46715;40.642;-7.920;2023-05-07T10:03:14;8.88;;;1.42;;
60873;SDS011;46715;40.642;-7.920;2023-05-07T10:05:26;6.30;;;1.50;;
60873;SDS011;46715;40.642;-7.920;2023-05-07T10:07:31;3.53;;;1.55;;
60873;SDS011;46715;40.642;-7.920;2023-05-07T10:09:39;6.35;;;1.30;;
60873;SDS011;46715;40.642;-7.920;2023-05-07T10:11:49;3.13;;;0.98;;
60873;SDS011;46715;40.642;-7.920;2023-05-07T10:13:51;3.97;;;1.45;;
60873;SDS011;46715;40.642;-7.920;2023-05-07T10:15:54;3.95;;;1.50;;
60873;SDS011;46715;40.642;-7.920;2023-05-07T10:17:57;3.97;;;1.40;;
60873;SDS011;46715;40.642;-7.920;2023-05-07T10:19:59;6.13;;;1.30;;
60873;SDS011;46715;40.642;-7.920;2023-05-07T10:22:05;6.70;;;2.30;;
60873;SDS011;46715;40.642;-7.920;2023-05-07T10:24:13;5.32;;;1.20;;
60873;SDS011;46715;40.642;-7.920;2023-05-07T10:26:27;3.40;;;1.10;;
60873;SDS011;46715;40.642;-7.920;2023-05-07T10:28:32;5.45;;;1.27;;
60873;SDS011;46715;40.642;-7.920;2023-05-07T10:33:17;4.20;;;1.40;;
60873;SDS011;46715;40.642;-7.920;2023-05-07T10:35:26;3.55;;;1.00;;
60873;SDS011;46715;40.642;-7.920;2023-05-07T10:37:34;2.97;;;1.15;;
60873;SDS011;46715;40.642;-7.920;2023-05-07T10:41:37;4.10;;;1.00;;
60873;SDS011;46715;40.642;-7.920;2023-05-07T10:43:41;2.50;;;0.88;;
60873;SDS011;46715;40.642;-7.920;2023-05-07T10:48:25;6.20;;;1.15;;
60873;SDS011;46715;40.642;-7.920;2023-05-07T10:50:29;7.65;;;1.20;;
60873;SDS011;46715;40.642;-7.920;2023-05-07T10:52:35;2.13;;;0.80;;
60873;SDS011;46715;40.642;-7.920;2023-05-07T10:54:43;2.50;;;0.93;;
60873;SDS011;46715;40.642;-7.920;2023-05-07T10:56:47;6.03;;;1.48;;
60873;SDS011;46715;40.642;-7.920;2023-05-07T10:58:59;4.55;;;1.00;;
60873;SDS011;46715;40.642;-7.920;2023-05-07T11:04:15;3.22;;;1.25;;
60873;SDS011;46715;40.642;-7.920;2023-05-07T11:06:26;4.05;;;1.48;;
60873;SDS011;46715;40.642;-7.920;2023-05-07T11:08:55;4.43;;;1.50;;
60873;SDS011;46715;40.642;-7.920;2023-05-07T11:11:08;4.63;;;1.67;;
60873;SDS011;46715;40.642;-7.920;2023-05-07T11:13:15;5.07;;;2.03;;
60873;SDS011;46715;40.642;-7.920;2023-05-07T11:15:40;8.02;;;2.05;;
60873;SDS011;46715;40.642;-7.920;2023-05-07T11:18:06;4.22;;;1.80;;
60873;SDS011;46715;40.642;-7.920;2023-05-07T11:20:11;5.00;;;1.70;;
60873;SDS011;46715;40.642;-7.920;2023-05-07T11:22:35;3.90;;;1.83;;
60873;SDS011;46715;40.642;-7.920;2023-05-07T11:24:54;4.88;;;1.90;;
60873;SDS011;46715;40.642;-7.920;2023-05-07T11:26:56;5.30;;;1.73;;
60873;SDS011;46715;40.642;-7.920;2023-05-07T11:29:00;2.72;;;1.42;;
60873;SDS011;46715;40.642;-7.920;2023-05-07T11:31:03;4.30;;;1.40;;
60873;SDS011;46715;40.642;-7.920;2023-05-07T11:33:04;3.90;;;1.60;;
60873;SDS011;46715;40.642;-7.920;2023-05-07T11:35:07;2.50;;;1.10;;
60873;SDS011;46715;40.642;-7.920;2023-05-07T11:37:09;4.40;;;1.00;;
60873;SDS011;46715;40.642;-7.920;2023-05-07T11:39:33;5.22;;;1.50;;
60873;SDS011;46715;40.642;-7.920;2023-05-07T11:41:35;3.53;;;1.30;;
60873;SDS011;46715;40.642;-7.920;2023-05-07T11:43:53;2.22;;;1.08;;
60873;SDS011;46715;40.642;-7.920;2023-05-07T11:46:04;3.50;;;1.05;;
60873;SDS011;46715;40.642;-7.920;2023-05-07T11:48:10;3.28;;;1.02;;
60873;SDS011;46715;40.642;-7.920;2023-05-07T11:50:13;3.38;;;1.30;;
60873;SDS011;46715;40.642;-7.920;2023-05-07T11:52:15;2.63;;;1.38;;
60873;SDS011;46715;40.642;-7.920;2023-05-07T11:54:18;3.95;;;1.55;;
60873;SDS011;46715;40.642;-7.920;2023-05-07T11:56:19;2.88;;;0.73;;
60873;SDS011;46715;40.642;-7.920;2023-05-07T12:00:22;2.15;;;0.50;;
60873;SDS011;46715;40.642;-7.920;2023-05-07T12:02:23;3.00;;;0.63;;
60873;SDS011;46715;40.642;-7.920;2023-05-07T12:04:25;0.90;;;0.57;;
60873;SDS011;46715;40.642;-7.920;2023-05-07T12:06:25;0.77;;;0.50;;
60873;SDS011;46715;40.642;-7.920;2023-05-07T12:08:27;1.17;;;0.60;;
60873;SDS011;46715;40.642;-7.920;2023-05-07T12:10:29;5.05;;;1.23;;
60873;SDS011;46715;40.642;-7.920;2023-05-07T12:12:31;4.38;;;0.80;;
60873;SDS011;46715;40.642;-7.920;2023-05-07T12:14:43;2.85;;;0.88;;
60873;SDS011;46715;40.642;-7.920;2023-05-07T12:16:46;1.45;;;0.73;;
60873;SDS011;46715;40.642;-7.920;2023-05-07T12:18:47;4.05;;;1.30;;
60873;SDS011;46715;40.642;-7.920;2023-05-07T12:24:58;2.63;;;1.40;;
60873;SDS011;46715;40.642;-7.920;2023-05-07T12:26:59;3.33;;;1.10;;
60873;SDS011;46715;40.642;-7.920;2023-05-07T12:29:06;4.10;;;1.52;;
60873;SDS011;46715;40.642;-7.920;2023-05-07T12:31:07;2.08;;;1.30;;
60873;SDS011;46715;40.642;-7.920;2023-05-07T12:33:08;6.32;;;1.63;;
60873;SDS011;46715;40.642;-7.920;2023-05-07T12:35:09;4.07;;;1.17;;
60873;SDS011;46715;40.642;-7.920;2023-05-07T12:37:11;3.33;;;1.33;;
60873;SDS011;46715;40.642;-7.920;2023-05-07T12:39:12;4.80;;;1.63;;
60873;SDS011;46715;40.642;-7.920;2023-05-07T12:41:14;4.25;;;1.60;;
60873;SDS011;46715;40.642;-7.920;2023-05-07T12:43:15;5.60;;;1.45;;
60873;SDS011;46715;40.642;-7.920;2023-05-07T12:45:20;8.10;;;1.85;;